createdAt,value
2022-07-28T00:00:54.017Z,13.36
2022-07-28T00:06:56.010Z,13.20
2022-07-28T00:12:59.780Z,13.08
2022-07-28T00:19:02.335Z,12.95
2022-07-28T00:25:04.895Z,12.95
2022-07-28T00:31:09.496Z,12.70
2022-07-28T00:37:14.498Z,12.55
2022-07-28T00:43:17.006Z,12.40
2022-07-28T00:49:19.366Z,12.31
2022-07-28T00:55:23.510Z,12.14
2022-07-28T01:01:25.779Z,12.09
2022-07-28T01:07:41.730Z,12.07
2022-07-28T01:13:59.645Z,11.84
2022-07-28T01:20:06.106Z,11.75
2022-07-28T01:26:29.196Z,11.58
2022-07-28T01:32:46.500Z,11.50
2022-07-28T01:38:49.914Z,11.47
2022-07-28T01:44:55.576Z,11.08
2022-07-28T01:50:58.453Z,10.88
2022-07-28T01:57:02.409Z,10.81
2022-07-28T02:03:07.217Z,10.62
2022-07-28T02:09:10.786Z,10.61
2022-07-28T02:15:15.047Z,10.52
2022-07-28T02:21:18.168Z,10.52
2022-07-28T02:27:24.471Z,10.57
2022-07-28T02:33:59.757Z,10.55
2022-07-28T02:40:00.258Z,10.63
2022-07-28T02:46:10.961Z,10.61
2022-07-28T02:52:15.824Z,10.56
2022-07-28T02:58:29.564Z,10.56
2022-07-28T03:04:50.279Z,10.56
2022-07-28T03:11:10.754Z,10.73
2022-07-28T03:17:12.862Z,10.72
2022-07-28T03:23:16.232Z,10.87
2022-07-28T03:29:19.836Z,10.83
2022-07-28T03:35:23.526Z,10.91
2022-07-28T03:41:28.223Z,10.95
2022-07-28T03:47:30.296Z,10.93
2022-07-28T03:53:35.317Z,11.03
2022-07-28T03:59:37.320Z,11.13
2022-07-28T04:05:40.046Z,11.14
2022-07-28T04:11:43.603Z,11.21
2022-07-28T04:17:48.707Z,11.16
2022-07-28T04:23:50.820Z,11.24
2022-07-28T04:29:52.803Z,11.39
2022-07-28T04:35:54.876Z,11.52
2022-07-28T04:41:57.092Z,11.50
2022-07-28T04:47:59.124Z,11.53
2022-07-28T04:54:01.110Z,11.56
2022-07-28T05:00:12.697Z,11.78
2022-07-28T05:06:15.332Z,12.02
2022-07-28T05:12:17.332Z,12.35
2022-07-28T05:18:19.357Z,12.62
2022-07-28T05:24:21.352Z,12.73
2022-07-28T05:30:23.406Z,12.66
2022-07-28T05:36:25.381Z,12.64
2022-07-28T05:42:29.646Z,12.77
2022-07-28T05:48:31.808Z,13.09
2022-07-28T05:54:33.904Z,13.56
2022-07-28T06:00:36.026Z,13.82
2022-07-28T06:06:37.995Z,14.07
2022-07-28T06:12:42.631Z,14.34
2022-07-28T06:18:44.659Z,14.68
2022-07-28T06:24:46.644Z,15.15
2022-07-28T06:30:49.974Z,15.61
2022-07-28T06:36:52.760Z,15.82
2022-07-28T06:42:54.860Z,16.11
2022-07-28T06:48:56.881Z,16.76
2022-07-28T06:55:00.613Z,17.19
2022-07-28T07:01:07.736Z,17.39
2022-07-28T07:07:14.824Z,17.89
2022-07-28T07:13:19.120Z,18.15
2022-07-28T07:19:21.881Z,18.07
2022-07-28T07:25:23.926Z,18.43
2022-07-28T07:31:25.957Z,19.05
2022-07-28T07:37:28.333Z,19.49
2022-07-28T07:43:30.362Z,19.30
2022-07-28T07:49:43.476Z,19.61
2022-07-28T07:55:48.266Z,20.06
2022-07-28T08:01:54.694Z,20.87
2022-07-28T08:07:56.705Z,21.32
2022-07-28T08:13:58.685Z,22.01
2022-07-28T08:20:02.251Z,22.99
2022-07-28T08:26:04.547Z,23.17
2022-07-28T08:32:07.278Z,22.74
2022-07-28T08:38:11.318Z,22.93
2022-07-28T08:44:21.358Z,22.88
2022-07-28T08:50:24.597Z,23.70
2022-07-28T08:56:28.178Z,24.36
2022-07-28T09:02:31.996Z,24.60
2022-07-28T09:08:34.208Z,25.11
2022-07-28T09:14:36.371Z,25.20
2022-07-28T09:20:38.909Z,25.86
2022-07-28T09:27:02.031Z,26.49
2022-07-28T09:33:42.786Z,26.34
2022-07-28T09:39:47.752Z,26.94
2022-07-28T09:46:10.290Z,27.36
2022-07-28T09:52:12.473Z,27.63
2022-07-28T09:58:14.877Z,28.25
2022-07-28T10:04:28.035Z,28.40
2022-07-28T10:10:31.212Z,28.58
2022-07-28T10:16:46.886Z,29.40
2022-07-28T10:22:49.798Z,28.32
2022-07-28T10:28:53.948Z,26.56
2022-07-28T10:35:17.969Z,25.42
2022-07-28T10:41:22.227Z,25.56
2022-07-28T10:47:35.876Z,25.96
2022-07-28T10:53:54.560Z,27.09
2022-07-28T11:00:26.365Z,28.66
2022-07-28T11:06:40.211Z,28.29
2022-07-28T11:12:54.778Z,28.06
2022-07-28T11:19:36.952Z,29.91
2022-07-28T11:25:31.587Z,31.67
2022-07-28T11:31:48.276Z,32.10
2022-07-28T11:38:02.555Z,32.17
2022-07-28T11:44:28.891Z,32.95
2022-07-28T11:50:31.464Z,33.66
2022-07-28T11:56:37.287Z,34.63
2022-07-28T12:02:41.199Z,33.89
2022-07-28T12:08:56.994Z,32.76
2022-07-28T12:15:03.356Z,33.19
2022-07-28T12:21:08.477Z,34.35
2022-07-28T12:27:13.505Z,33.63
2022-07-28T12:33:29.010Z,33.65
2022-07-28T12:39:36.717Z,32.12
2022-07-28T12:45:46.549Z,31.84
2022-07-28T12:51:48.765Z,34.67
2022-07-28T12:57:52.835Z,34.15
2022-07-28T13:03:54.841Z,35.67
2022-07-28T13:10:11.544Z,35.62
2022-07-28T13:16:22.031Z,34.50
2022-07-28T13:22:28.950Z,36.11
2022-07-28T13:28:31.132Z,37.26
2022-07-28T13:34:33.109Z,36.41
2022-07-28T13:40:35.107Z,35.18
2022-07-28T13:46:40.435Z,36.15
2022-07-28T13:52:49.053Z,36.90
2022-07-28T13:58:53.572Z,37.98
2022-07-28T14:04:55.534Z,38.46
2022-07-28T14:10:59.101Z,38.83
2022-07-28T14:17:14.474Z,38.65
2022-07-28T14:23:23.055Z,37.10
2022-07-28T14:29:25.931Z,37.45
2022-07-28T14:35:27.888Z,36.78
2022-07-28T14:41:29.960Z,37.72
2022-07-28T14:47:44.622Z,35.87
2022-07-28T14:53:51.770Z,36.53
2022-07-28T14:59:54.186Z,37.43
2022-07-28T15:05:57.763Z,36.85
2022-07-28T15:11:59.925Z,36.90
2022-07-28T15:18:03.710Z,38.00
2022-07-28T15:24:08.967Z,37.43
2022-07-28T15:30:12.085Z,38.02
2022-07-28T15:36:14.637Z,38.30
2022-07-28T15:42:16.705Z,37.41
2022-07-28T15:48:18.678Z,37.27
2022-07-28T15:54:20.737Z,36.85
2022-07-28T16:00:22.828Z,37.45
2022-07-28T16:06:26.486Z,37.41
2022-07-28T16:12:29.274Z,37.21
2022-07-28T16:18:31.824Z,36.60
2022-07-28T16:24:33.891Z,36.70
2022-07-28T16:30:36.026Z,36.45
2022-07-28T16:36:41.682Z,35.25
2022-07-28T16:42:44.432Z,35.02
2022-07-28T16:48:46.422Z,34.75
2022-07-28T16:54:48.441Z,34.85
2022-07-28T17:00:51.024Z,35.04
2022-07-28T17:06:53.048Z,35.80
2022-07-28T17:12:55.293Z,36.04
2022-07-28T17:18:57.743Z,36.09
2022-07-28T17:24:59.705Z,36.36
2022-07-28T17:31:01.890Z,35.89
2022-07-28T17:37:04.922Z,35.38
2022-07-28T17:43:07.043Z,35.24
2022-07-28T17:49:09.223Z,35.91
2022-07-28T17:55:30.187Z,34.31
2022-07-28T18:01:33.523Z,33.17
2022-07-28T18:07:49.021Z,32.80
2022-07-28T18:14:04.252Z,31.53
2022-07-28T18:20:08.790Z,29.50
2022-07-28T18:26:10.907Z,28.12
2022-07-28T18:32:14.536Z,26.80
2022-07-28T18:38:16.539Z,25.64
2022-07-28T18:44:19.651Z,24.86
2022-07-28T18:50:31.076Z,24.01
2022-07-28T18:56:33.764Z,23.23
2022-07-28T19:02:37.612Z,22.71
2022-07-28T19:08:39.633Z,22.32
2022-07-28T19:14:41.699Z,22.03
2022-07-28T19:20:46.772Z,21.52
2022-07-28T19:26:51.211Z,21.26
2022-07-28T19:32:53.206Z,20.82
2022-07-28T19:38:55.257Z,20.67
2022-07-28T19:44:57.347Z,20.46
2022-07-28T19:51:00.590Z,20.42
2022-07-28T19:57:02.578Z,20.22
2022-07-28T20:04:02.522Z,20.05
2022-07-28T20:09:34.847Z,19.75
2022-07-28T20:15:38.772Z,19.70
2022-07-28T20:21:40.882Z,19.81
2022-07-28T20:27:43.228Z,19.72
2022-07-28T20:33:45.223Z,19.80
2022-07-28T20:39:47.187Z,19.73
2022-07-28T20:45:49.396Z,19.93
2022-07-28T20:51:51.534Z,19.90
2022-07-28T20:57:57.474Z,19.95
2022-07-28T21:03:59.464Z,19.71
2022-07-28T21:10:01.461Z,19.53
2022-07-28T21:16:03.811Z,19.25
2022-07-28T21:22:05.908Z,19.04
2022-07-28T21:28:43.324Z,18.86
2022-07-28T21:34:45.519Z,18.65
2022-07-28T21:40:47.533Z,18.43
2022-07-28T21:46:49.576Z,18.21
2022-07-28T21:52:51.575Z,18.14
2022-07-28T21:58:54.001Z,18.09
2022-07-28T22:04:56.068Z,18.14
2022-07-28T22:10:58.842Z,18.00
2022-07-28T22:17:01.444Z,17.89
2022-07-28T22:23:03.646Z,17.94
2022-07-28T22:29:20.169Z,17.80
2022-07-28T22:35:22.870Z,17.81
2022-07-28T22:41:24.832Z,17.83
2022-07-28T22:47:28.528Z,17.88
2022-07-28T22:53:30.496Z,17.80
2022-07-28T22:59:35.703Z,17.78
2022-07-28T23:05:42.064Z,17.93
2022-07-28T23:11:54.528Z,18.02
2022-07-28T23:17:57.646Z,18.09
2022-07-28T23:23:59.629Z,18.15
2022-07-28T23:30:01.712Z,18.11
2022-07-28T23:36:06.465Z,18.21
2022-07-28T23:42:08.539Z,18.36
2022-07-28T23:48:10.508Z,18.21
2022-07-28T23:54:14.618Z,18.07
